Hlavní strana
METAR-TAF:

METAR-TAF

Letiště :

Antofagasta, Chile

zeměpisná šířka: 23-26S, zeměpisná délka: 070-26W, výška: 135 m

Aktuální stav počasí

Zpráva byla vytvořena před 48 minutami, v 20:00 UTC
Jihojihozápadní vítr 20 kt
Teplota 14°C
Vlhkost vzduchu 72%
Tlak 1020 hPa
Viditelnost 10 km a více
Oblačno až skoro zataženo ve výšce 2300 ft
Polojasno ve výšce 11000 ft

METAR: SCFA 192000Z 20020KT 9999 BKN023 SCT110 14/09 Q1020 NOSIG

Čas: 16:48 (20:48 UTC)

Předpověď počasí

Zpráva byla vytvořena před 4 hodinami a 12 minutami, v 16:36 UTC
Předpověď platná od 19 v 18 UTC do 20 v 18 UTC
Jižní vítr 18 kt
Viditelnost 10 km a více
Polojasno ve výšce 1600 ft
Oblačno až skoro zataženo ve výšce 1900 ft
Změna
od 20 v 04 UTC do 20 v 06 UTC
Jižní vítr 8 kt
Viditelnost 10 km a více
Žádná oblačnost pod 1500 m, nevyskytují se cumulonimby.
Změna
od 20 v 16 UTC do 20 v 18 UTC
Jižní vítr 18 kt

TAF: SCFA 191636Z 1918/2018 19018KT 9999 SCT016 BKN019 TX13/1918Z TN10 /2006Z BECMG 2004/2006 17008KT CAVOK BECMG 2016/2018 18018KT

Stav a předpovědi počasí z více než 4 000 letišť (zprávy METAR a TAF).

Červené a žluté tečky na mapě představují dostupné meteorologické stanice.

Když kurzor umístíte na tečku, zobrazí se název stanice.

Pak kliknutím zobrazíte stav a předpověď počasí.

Chcete-li změnit mapu, kliknutím na zelené tlačítko se znaménkem +mapu přiblížíte, kliknutím na zelené tlačítko se znaménkem – mapu oddálíte a kliknutím na zelené šipky přejdete na sousední mapy.


METAR-TAF: